Skip Navigation Links Skip Navigation Links

Current Weather

Archangel'Sk, Archangel, Russia

For information only: do not use for flight planning or navigation.
Latest weather
Observation time Friday, April 3, 2020 8:30 PM MSK
Local time Friday, April 3, 2020 8:54 PM MSK
Flight conditions Visual Meteorological Conditions
Winds
Wind direction South-Southwest (200°)
Winds variable from 160° to 250°
Wind speed 7 mph
Visibility 6.2 mi.
Sky condition
Ceiling unlimited
Cloud layer scattered clouds with cumulonimbus 3,000 ft.
Temperature 37°F
Dewpoint 30°F
Altimeter 29.09 in.Hg
Precipitation
QF 8:17 AM
Derived measurements
Relative humidity 75%
Wind chill 32°F
Density altitude -370 ft.
Remarks
No significant changes expected in the next two hours.
METAR ULAA 031730Z 20003MPS 160V250 9999 SCT030CB 03/M01 Q0985 R26/910560 NOSIG RMK QFE737/0983

Settings

Location code

InnerDrive.Weather 4.0.6770.0 Release CLR 4.0.30319.42000
Copyright ©2018 Inner Drive Technology. All rights reserved. Portions Copyright ©1986-2018 David Braverman.

Find weather

Site navigation


Skip Navigation Links

Place info

Page info

PayPal - The safer, easier way to pay online!

Return home.

Copyright ©2020 Inner Drive Technology. Purveyors of fine, hand-crafted computer software. Page printed 2020-04-03T17:54:02 UTC.